Time;durP1;ratioP1;P1;durP2;ratioP2;P2;SDS_P1;SDS_P2;PMS_P1;PMS_P2;Temp;Humidity;BMP_temperature;BMP_pressure;BME280_temperature;BME280_humidity;BME280_pressure;Samples;Min_cycle;Max_cycle;Signal;HPM_P1;HPM_P2
2021/06/17 00:00:01;;;;;;;4.18;3.88;;;;;;;21.87;58.76;97770.69;5044879;28;20245;-52
2021/06/17 00:02:28;;;;;;;5.00;3.80;;;;;;;22.05;58.99;97761.03;5052748;28;20242;-55
2021/06/17 00:04:55;;;;;;;4.72;3.83;;;;;;;21.68;59.65;97775.00;5049635;28;20235;-52
2021/06/17 00:07:21;;;;;;;3.92;3.63;;;;;;;22.02;58.79;97771.94;5047395;28;20234;-54
2021/06/17 00:09:48;;;;;;;4.32;3.92;;;;;;;21.69;59.66;97773.22;5045354;28;20230;-53
2021/06/17 00:12:15;;;;;;;5.07;4.57;;;;;;;21.53;59.82;97776.41;5046687;28;20272;-53
2021/06/17 00:14:43;;;;;;;4.18;3.78;;;;;;;21.94;58.96;97785.06;5048645;28;20243;-51
2021/06/17 00:17:09;;;;;;;4.28;3.97;;;;;;;21.25;60.79;97785.94;5049636;28;20863;-53
2021/06/17 00:19:36;;;;;;;4.50;4.10;;;;;;;21.06;61.31;97784.06;5048711;28;20238;-50
2021/06/17 00:22:04;;;;;;;4.88;3.67;;;;;;;21.45;60.91;97779.75;5048908;28;20233;-52
2021/06/17 00:24:30;;;;;;;4.10;3.70;;;;;;;22.17;59.14;97782.16;5048124;28;20210;-52
2021/06/17 00:26:57;;;;;;;4.20;3.90;;;;;;;21.85;59.16;97775.28;5048326;28;20237;-54
2021/06/17 00:29:23;;;;;;;4.07;3.78;;;;;;;22.17;58.97;97775.00;5051305;28;20248;-55
2021/06/17 00:31:51;;;;;;;5.90;4.47;;;;;;;21.53;60.08;97776.41;5049055;28;20245;-52
2021/06/17 00:34:18;;;;;;;4.47;4.07;;;;;;;21.79;59.75;97776.69;5051053;28;20220;-52
2021/06/17 00:36:44;;;;;;;3.95;3.65;;;;;;;21.33;60.80;97776.31;5048027;28;20745;-52
2021/06/17 00:39:11;;;;;;;4.28;3.88;;;;;;;21.23;60.92;97775.47;5050167;28;20221;-55
2021/06/17 00:41:39;;;;;;;4.55;4.13;;;;;;;21.38;60.94;97779.41;5047996;28;20256;-52
2021/06/17 00:44:05;;;;;;;4.47;4.07;;;;;;;21.47;60.85;97782.25;5049461;28;20214;-52
2021/06/17 00:46:32;;;;;;;4.38;3.97;;;;;;;22.10;59.26;97771.25;5044659;28;20238;-54
2021/06/17 00:49:01;;;;;;;5.05;4.03;;;;;;;21.94;58.64;97774.47;5046516;28;20240;-52
2021/06/17 00:51:28;;;;;;;4.38;4.05;;;;;;;22.21;57.60;97763.13;5048037;28;20233;-53
2021/06/17 00:53:55;;;;;;;4.53;3.72;;;;;;;22.51;57.31;97758.59;5049438;28;20217;-53
2021/06/17 00:56:22;;;;;;;4.95;4.50;;;;;;;21.38;59.64;97762.66;5048323;28;20333;-53
2021/06/17 00:58:49;;;;;;;4.13;3.83;;;;;;;20.63;62.34;97766.59;5048223;28;20237;-52
2021/06/17 01:01:15;;;;;;;4.70;4.30;;;;;;;21.15;61.14;97768.16;5045905;28;20280;-53
2021/06/17 01:03:42;;;;;;;3.85;3.50;;;;;;;20.88;62.19;97760.84;5047856;28;20212;-52
2021/06/17 01:06:10;;;;;;;4.10;3.70;;;;;;;21.34;61.52;97761.25;5045123;28;20249;-54
2021/06/17 01:08:47;;;;;;;5.30;4.20;;;;;;;21.34;61.59;97755.94;5047747;28;20228;-53
2021/06/17 01:11:18;;;;;;;4.72;3.90;;;;;;;20.90;62.32;97758.88;5047554;28;20253;-54
2021/06/17 01:13:50;;;;;;;3.92;3.60;;;;;;;20.68;63.56;97751.13;5048524;28;20776;-53
2021/06/17 01:16:21;;;;;;;3.75;3.45;;;;;;;21.13;61.83;97756.84;5046660;28;20238;-53
2021/06/17 01:18:50;;;;;;;4.75;3.88;;;;;;;21.48;59.93;97752.91;5046646;28;20248;-54
2021/06/17 01:21:32;;;;;;;4.13;3.55;;;;;;;21.91;59.17;97742.91;5050808;28;20241;-54
2021/06/17 01:24:08;;;;;;;4.50;4.00;;;;;;;21.75;59.71;97746.94;5049824;28;20221;-55
2021/06/17 01:26:45;;;;;;;4.28;3.88;;;;;;;21.48;60.33;97746.78;5050623;28;20251;-55
2021/06/17 01:29:16;;;;;;;4.40;4.00;;;;;;;21.62;59.87;97746.38;5052026;28;20234;-53
2021/06/17 01:31:42;;;;;;;5.15;4.22;;;;;;;21.41;60.80;97738.47;5050205;28;20240;-52
2021/06/17 01:34:10;;;;;;;4.22;3.83;;;;;;;21.46;59.83;97740.78;5052208;28;20216;-53
2021/06/17 01:36:40;;;;;;;5.03;3.83;;;;;;;21.17;60.95;97744.16;5050641;28;20237;-54
2021/06/17 01:39:09;;;;;;;5.75;4.25;;;;;;;21.03;61.74;97736.63;5052652;28;20238;-52
2021/06/17 01:41:39;;;;;;;4.70;4.25;;;;;;;21.06;61.03;97736.31;5049535;28;20242;-51
2021/06/17 01:44:07;;;;;;;3.88;3.58;;;;;;;20.92;61.92;97735.72;5052464;28;20224;-56
2021/06/17 01:46:36;;;;;;;4.68;4.03;;;;;;;21.36;61.25;97728.31;5052534;28;20639;-55
2021/06/17 01:49:02;;;;;;;4.32;3.85;;;;;;;21.86;59.79;97726.53;5051544;28;20240;-55
2021/06/17 01:51:30;;;;;;;4.45;4.07;;;;;;;21.69;60.36;97728.91;5049211;28;20248;-52
2021/06/17 01:53:57;;;;;;;4.65;3.70;;;;;;;21.20;61.27;97728.00;5049430;28;20206;-52
2021/06/17 01:56:25;;;;;;;4.10;3.63;;;;;;;21.17;61.71;97728.25;5050320;28;20240;-55
2021/06/17 01:58:54;;;;;;;3.58;3.33;;;;;;;20.58;62.48;97735.97;5050131;28;20632;-55
2021/06/17 02:01:22;;;;;;;4.65;4.25;;;;;;;20.36;63.65;97725.53;5051400;28;20882;-55
2021/06/17 02:03:52;;;;;;;4.53;4.13;;;;;;;21.27;61.29;97734.44;5050164;28;20271;-53
2021/06/17 02:06:19;;;;;;;3.80;3.50;;;;;;;20.28;63.01;97725.38;5050505;28;20242;-53
2021/06/17 02:08:48;;;;;;;5.63;5.13;;;;;;;19.36;66.27;97720.59;5051712;28;20217;-51
2021/06/17 02:11:15;;;;;;;4.78;3.72;;;;;;;20.32;64.59;97722.31;5049498;28;20746;-52
2021/06/17 02:13:43;;;;;;;4.28;3.88;;;;;;;20.24;63.76;97722.16;5047594;28;20214;-49
2021/06/17 02:16:10;;;;;;;4.55;4.15;;;;;;;19.41;66.40;97710.50;5051629;28;20237;-52
2021/06/17 02:18:37;;;;;;;4.28;3.88;;;;;;;20.14;65.13;97714.13;5050266;28;20221;-55
2021/06/17 02:21:06;;;;;;;4.75;4.25;;;;;;;20.30;63.18;97708.38;5051483;28;20249;-53
2021/06/17 02:23:33;;;;;;;4.72;4.32;;;;;;;19.89;64.89;97703.91;5052932;28;20229;-52
2021/06/17 02:26:01;;;;;;;4.78;4.38;;;;;;;20.10;65.12;97702.13;5051211;28;20237;-49
2021/06/17 02:28:28;;;;;;;4.43;4.03;;;;;;;20.58;62.71;97701.53;5048554;28;20226;-53
2021/06/17 02:30:57;;;;;;;4.70;4.30;;;;;;;20.54;63.21;97705.41;5050843;28;20282;-56
2021/06/17 02:33:24;;;;;;;4.57;4.18;;;;;;;19.92;64.62;97708.97;5050323;28;20221;-55
2021/06/17 02:35:53;;;;;;;4.53;4.13;;;;;;;19.84;64.71;97706.97;5050148;28;20241;-53
2021/06/17 02:38:26;;;;;;;5.55;5.00;;;;;;;20.29;64.24;97703.19;5051106;28;20217;-52
2021/06/17 02:40:58;;;;;;;4.57;4.18;;;;;;;20.53;62.95;97702.91;5049629;28;20254;-54
2021/06/17 02:43:25;;;;;;;4.28;3.88;;;;;;;19.94;65.16;97699.09;5049308;28;20214;-55
2021/06/17 02:45:52;;;;;;;4.55;4.13;;;;;;;20.00;65.29;97695.94;5052005;28;20245;-52
2021/06/17 02:48:18;;;;;;;4.32;3.95;;;;;;;20.67;62.00;97691.97;5049137;28;20603;-55
2021/06/17 02:50:45;;;;;;;5.50;4.65;;;;;;;19.94;64.54;97692.00;5048417;28;20980;-55
2021/06/17 02:53:11;;;;;;;4.45;4.05;;;;;;;19.99;64.78;97694.25;5050789;28;20221;-56
2021/06/17 02:55:40;;;;;;;4.45;4.10;;;;;;;19.91;64.46;97686.13;5049416;28;20238;-52
2021/06/17 02:58:19;;;;;;;4.55;4.18;;;;;;;19.65;65.30;97689.13;5050048;28;20205;-51
2021/06/17 03:00:50;;;;;;;4.70;4.05;;;;;;;20.54;62.73;97699.28;5048615;28;20329;-56
2021/06/17 03:03:20;;;;;;;5.57;4.28;;;;;;;20.52;62.79;97688.00;5050778;28;20306;-49
2021/06/17 03:05:52;;;;;;;4.90;4.50;;;;;;;19.78;64.67;97689.81;5049984;28;20234;-52
2021/06/17 03:08:23;;;;;;;4.80;4.40;;;;;;;19.40;66.31;97692.94;5048686;28;20217;-53
2021/06/17 03:10:53;;;;;;;4.97;3.92;;;;;;;19.83;65.92;97706.13;5050655;28;20277;-51
2021/06/17 03:13:22;;;;;;;4.80;4.43;;;;;;;20.07;64.00;97701.53;5050893;28;20206;-52
2021/06/17 03:15:50;;;;;;;4.22;3.92;;;;;;;20.16;63.66;97698.09;5050410;28;20234;-55
2021/06/17 03:18:18;;;;;;;4.35;4.05;;;;;;;20.42;62.79;97701.19;5045652;28;20229;-55
2021/06/17 03:20:45;;;;;;;4.28;3.88;;;;;;;20.13;63.55;97699.22;5049953;28;20245;-51
2021/06/17 03:23:15;;;;;;;4.40;4.00;;;;;;;20.00;64.75;97701.25;5049287;28;20210;-56
2021/06/17 03:25:43;;;;;;;4.93;4.43;;;;;;;20.74;63.04;97705.53;5051661;28;20859;-54
2021/06/17 03:28:13;;;;;;;4.90;4.47;;;;;;;20.31;63.96;97694.16;5051309;28;20229;-51
2021/06/17 03:30:43;;;;;;;5.85;5.32;;;;;;;19.92;64.04;97698.38;5048415;28;20238;-52
2021/06/17 03:33:10;;;;;;;5.20;4.07;;;;;;;20.49;62.83;97694.38;5048610;28;20218;-54
2021/06/17 03:35:37;;;;;;;4.68;4.28;;;;;;;20.54;62.90;97697.47;5047678;28;20237;-54
2021/06/17 03:38:04;;;;;;;5.05;4.05;;;;;;;20.36;63.42;97696.41;5050572;28;20210;-56
2021/06/17 03:40:31;;;;;;;4.10;3.78;;;;;;;20.15;64.07;97702.56;5050199;28;20240;-54
2021/06/17 03:43:00;;;;;;;4.45;4.07;;;;;;;20.16;63.59;97709.56;5046821;28;20205;-52
2021/06/17 03:45:28;;;;;;;4.53;4.13;;;;;;;20.19;64.14;97708.44;5047252;28;20221;-52
2021/06/17 03:47:56;;;;;;;4.30;3.90;;;;;;;20.21;63.80;97715.28;5049520;28;20218;-52
2021/06/17 03:50:24;;;;;;;5.75;4.25;;;;;;;20.30;63.62;97712.84;5047982;28;20234;-53
2021/06/17 03:52:52;;;;;;;4.40;4.00;;;;;;;19.56;65.56;97725.09;5049069;28;20225;-52
2021/06/17 03:55:19;;;;;;;4.82;3.92;;;;;;;20.19;63.83;97727.00;5051073;28;20224;-52
2021/06/17 03:57:46;;;;;;;5.05;4.28;;;;;;;20.34;62.94;97725.66;5051538;28;20225;-54
2021/06/17 04:00:14;;;;;;;4.57;4.13;;;;;;;20.58;62.18;97728.00;5045694;28;20250;-52
2021/06/17 04:02:42;;;;;;;4.25;3.90;;;;;;;20.51;62.23;97729.53;5047130;28;20226;-52
2021/06/17 04:05:10;;;;;;;5.47;4.00;;;;;;;19.87;64.30;97737.63;5047165;28;20217;-49
2021/06/17 04:07:38;;;;;;;4.30;3.90;;;;;;;20.18;63.15;97752.63;5048468;28;20213;-52
2021/06/17 04:10:07;;;;;;;4.07;3.67;;;;;;;19.88;64.04;97749.91;5048171;28;20329;-51
2021/06/17 04:12:35;;;;;;;4.28;3.95;;;;;;;19.80;64.88;97748.72;5048935;28;20210;-53
2021/06/17 04:15:03;;;;;;;4.30;3.95;;;;;;;20.11;63.94;97754.13;5047450;28;20679;-53
2021/06/17 04:17:32;;;;;;;4.65;4.25;;;;;;;20.35;63.26;97751.19;5048276;28;20233;-51
2021/06/17 04:20:00;;;;;;;4.20;3.80;;;;;;;20.13;64.21;97754.00;5047865;28;20234;-56
2021/06/17 04:22:28;;;;;;;5.15;4.53;;;;;;;20.17;64.10;97756.25;5046539;28;20265;-53
2021/06/17 04:24:58;;;;;;;4.47;4.05;;;;;;;20.40;63.00;97756.09;5048410;28;20221;-54
2021/06/17 04:27:25;;;;;;;4.50;4.10;;;;;;;20.54;62.36;97762.88;5045862;28;20272;-49
2021/06/17 04:29:52;;;;;;;4.32;3.90;;;;;;;20.69;62.56;97766.03;5046149;28;20245;-55
2021/06/17 04:32:19;;;;;;;4.30;3.90;;;;;;;21.11;60.58;97765.94;5048725;28;20229;-52
2021/06/17 04:34:46;;;;;;;4.53;3.80;;;;;;;21.71;59.22;97769.44;5050591;28;20770;-56
2021/06/17 04:37:16;;;;;;;4.43;4.05;;;;;;;21.94;59.18;97766.50;5049754;28;20230;-52
2021/06/17 04:39:45;;;;;;;6.93;4.82;;;;;;;21.74;59.48;97763.84;5047697;28;20722;-51
2021/06/17 04:42:14;;;;;;;5.40;4.47;;;;;;;21.66;59.37;97765.50;5046575;28;20230;-55
2021/06/17 04:44:41;;;;;;;4.47;4.07;;;;;;;21.68;59.79;97758.25;5049371;28;20217;-52
2021/06/17 04:47:08;;;;;;;4.60;4.15;;;;;;;22.58;57.62;97761.53;5046374;28;20238;-54
2021/06/17 04:49:35;;;;;;;4.32;3.92;;;;;;;22.26;57.69;97757.44;5046529;28;20237;-54
2021/06/17 04:52:03;;;;;;;4.53;4.13;;;;;;;22.66;57.50;97753.66;5046386;28;20238;-54
2021/06/17 04:54:31;;;;;;;4.78;4.38;;;;;;;21.88;59.54;97759.09;5046819;28;20213;-54
2021/06/17 04:56:57;;;;;;;4.40;4.00;;;;;;;21.50;61.12;97766.88;5044443;28;20291;-51
2021/06/17 04:59:24;;;;;;;5.70;5.03;;;;;;;22.69;57.77;97769.34;5047254;28;20600;-54
2021/06/17 05:01:51;;;;;;;4.75;4.28;;;;;;;22.38;58.73;97769.53;5040985;28;20237;-52
2021/06/17 05:04:18;;;;;;;4.47;4.07;;;;;;;22.67;58.54;97768.63;5047024;28;20301;-52
2021/06/17 05:06:54;;;;;;;5.20;4.70;;;;;;;22.63;58.92;97775.25;5050908;28;20246;-52
2021/06/17 05:12:07;;;;;;;5.43;4.40;;;;;;;23.00;57.67;97772.56;5049972;28;20282;-52
2021/06/17 05:14:35;;;;;;;5.93;4.72;;;;;;;22.00;60.39;97784.53;5048788;28;20217;-53
2021/06/17 05:17:01;;;;;;;6.10;4.53;;;;;;;22.31;59.59;97782.59;5049731;28;20234;-52
2021/06/17 05:19:28;;;;;;;5.80;5.30;;;;;;;23.77;56.61;97777.63;5051030;28;20263;-51
2021/06/17 05:21:54;;;;;;;5.07;4.60;;;;;;;24.39;54.39;97773.16;5050401;28;20260;-53
2021/06/17 05:24:21;;;;;;;6.28;5.68;;;;;;;22.87;57.80;97770.25;5047926;28;20820;-55
2021/06/17 05:26:47;;;;;;;6.35;5.75;;;;;;;23.33;57.54;97769.50;5049323;28;20241;-55
2021/06/17 05:29:15;;;;;;;5.70;5.15;;;;;;;23.42;57.50;97760.63;5052477;28;20240;-55
2021/06/17 05:31:42;;;;;;;7.07;6.38;;;;;;;21.82;61.07;97767.63;5047983;28;20233;-54
2021/06/17 05:34:08;;;;;;;5.63;5.13;;;;;;;22.56;59.72;97769.66;5049726;28;20210;-52
2021/06/17 05:36:35;;;;;;;8.35;5.47;;;;;;;22.48;60.02;97773.03;5046099;28;20229;-55
2021/06/17 05:39:01;;;;;;;6.82;6.22;;;;;;;23.03;58.83;97772.28;5047949;28;20240;-55
2021/06/17 05:41:28;;;;;;;6.47;5.88;;;;;;;23.23;59.25;97778.38;5047218;28;20276;-54
2021/06/17 05:43:54;;;;;;;6.38;5.80;;;;;;;23.64;58.21;97781.47;5054459;28;20209;-54
2021/06/17 05:46:22;;;;;;;6.65;5.53;;;;;;;23.42;59.71;97779.25;5049416;28;20245;-56
2021/06/17 05:48:49;;;;;;;5.82;5.38;;;;;;;23.67;57.31;97775.88;5050153;28;20221;-55
2021/06/17 05:51:15;;;;;;;7.25;6.43;;;;;;;24.48;55.90;97778.53;5049712;28;20245;-55
2021/06/17 05:53:42;;;;;;;7.38;6.70;;;;;;;23.94;57.39;97782.13;5051471;28;20214;-55
2021/06/17 05:56:08;;;;;;;6.90;6.30;;;;;;;23.91;57.99;97786.91;5048300;28;20242;-53
2021/06/17 05:58:36;;;;;;;6.97;6.28;;;;;;;24.62;55.75;97778.00;5050497;28;20214;-53
2021/06/17 06:01:03;;;;;;;8.32;5.90;;;;;;;25.26;53.99;97783.03;5048270;28;20270;-53
2021/06/17 06:03:33;;;;;;;7.18;5.90;;;;;;;25.29;52.54;97780.88;5049324;28;20749;-55
2021/06/17 06:05:59;;;;;;;6.57;5.97;;;;;;;24.95;53.59;97783.53;5053071;28;20241;-55
2021/06/17 06:08:26;;;;;;;7.05;5.97;;;;;;;25.44;51.22;97781.09;5050051;28;20217;-54
2021/06/17 06:10:52;;;;;;;5.40;4.95;;;;;;;25.62;51.37;97778.25;5052290;28;20242;-56
2021/06/17 06:13:19;;;;;;;6.78;5.70;;;;;;;26.46;49.10;97781.69;5052864;28;20723;-53
2021/06/17 06:15:45;;;;;;;6.75;5.05;;;;;;;26.59;48.97;97781.16;5051887;28;20246;-54
2021/06/17 06:18:14;;;;;;;5.30;4.80;;;;;;;26.99;47.68;97778.59;5052203;28;20221;-53
2021/06/17 06:20:43;;;;;;;7.00;5.38;;;;;;;27.26;47.38;97772.00;5052785;28;20943;-56
2021/06/17 06:23:10;;;;;;;5.50;5.10;;;;;;;27.19;47.37;97781.69;5054284;28;20841;-55
2021/06/17 06:25:37;;;;;;;7.45;5.43;;;;;;;26.69;47.51;97776.50;5054589;28;20241;-54
2021/06/17 06:28:05;;;;;;;5.57;5.07;;;;;;;28.01;45.93;97783.94;5054386;28;20224;-52
2021/06/17 06:30:31;;;;;;;5.72;5.03;;;;;;;27.38;46.89;97781.28;5054572;28;20241;-54
2021/06/17 06:32:58;;;;;;;6.07;4.82;;;;;;;27.86;46.61;97779.34;5052995;28;20226;-54
2021/06/17 06:35:25;;;;;;;6.05;5.47;;;;;;;27.98;45.46;97776.28;5053274;28;20214;-53
2021/06/17 06:37:53;;;;;;;5.85;4.80;;;;;;;29.84;42.94;97788.88;5050466;28;20691;-55
2021/06/17 06:40:23;;;;;;;5.10;4.68;;;;;;;29.91;42.64;97783.56;5051277;28;20230;-54
2021/06/17 06:42:50;;;;;;;5.13;4.63;;;;;;;30.51;41.27;97784.97;5052999;28;20330;-53
2021/06/17 06:45:17;;;;;;;5.30;4.80;;;;;;;29.13;42.67;97792.13;5047718;28;20317;-54
2021/06/17 06:47:43;;;;;;;5.22;4.80;;;;;;;29.02;42.45;97790.75;5051961;28;20218;-56
2021/06/17 06:50:11;;;;;;;5.40;4.90;;;;;;;29.48;41.24;97788.84;5051745;28;20259;-55
2021/06/17 06:52:38;;;;;;;5.75;4.95;;;;;;;30.56;40.45;97795.13;5053744;28;20639;-56
2021/06/17 06:55:07;;;;;;;5.10;4.60;;;;;;;30.53;40.42;97793.66;5053220;28;20575;-56
2021/06/17 06:57:34;;;;;;;6.15;4.90;;;;;;;30.51;39.94;97795.72;5051523;28;21015;-60
2021/06/17 07:00:00;;;;;;;5.43;4.93;;;;;;;30.98;38.89;97796.06;5050658;28;20234;-54
2021/06/17 07:02:27;;;;;;;5.45;4.95;;;;;;;32.96;36.03;97801.25;5052677;28;20874;-59
2021/06/17 07:04:53;;;;;;;4.60;4.20;;;;;;;34.10;33.07;97798.09;5050850;28;20229;-59
2021/06/17 07:07:20;;;;;;;5.22;4.78;;;;;;;34.73;33.35;97803.44;5052615;28;20268;-59
2021/06/17 07:09:46;;;;;;;5.32;4.82;;;;;;;35.83;30.92;97790.97;5048691;28;20245;-60
2021/06/17 07:12:14;;;;;;;5.20;4.80;;;;;;;36.50;30.50;97789.13;5051162;28;20230;-57
2021/06/17 07:14:41;;;;;;;5.72;4.60;;;;;;;34.96;32.01;97796.59;5048956;28;20213;-58
2021/06/17 07:17:07;;;;;;;4.95;4.60;;;;;;;36.44;30.68;97785.44;5049993;28;20902;-59
2021/06/17 07:19:34;;;;;;;5.65;4.65;;;;;;;36.06;30.91;97786.66;5051342;28;20248;-58
2021/06/17 07:22:00;;;;;;;4.97;4.50;;;;;;;36.98;29.63;97791.63;5051595;28;20342;-58
2021/06/17 07:24:27;;;;;;;5.47;4.97;;;;;;;36.54;30.76;97784.84;5052434;28;20218;-58
2021/06/17 07:26:54;;;;;;;5.10;4.70;;;;;;;36.58;30.70;97784.16;5054331;28;20242;-58
2021/06/17 07:29:22;;;;;;;5.10;4.60;;;;;;;37.30;29.92;97782.25;5051989;28;20234;-57
2021/06/17 07:31:49;;;;;;;4.85;4.45;;;;;;;38.04;28.43;97776.84;5051470;28;20240;-57
2021/06/17 07:34:16;;;;;;;5.40;5.00;;;;;;;38.24;28.12;97783.78;5050450;28;20222;-58
2021/06/17 07:36:43;;;;;;;5.18;4.78;;;;;;;38.05;29.54;97783.97;5050078;28;20243;-60
2021/06/17 07:39:11;;;;;;;5.30;4.80;;;;;;;36.47;30.42;97782.28;5051420;28;20776;-59
2021/06/17 07:41:39;;;;;;;6.00;4.93;;;;;;;38.88;27.79;97786.94;5051083;28;20256;-60
2021/06/17 07:44:06;;;;;;;5.18;4.60;;;;;;;38.65;27.79;97778.97;5053281;28;20225;-58
2021/06/17 07:46:34;;;;;;;5.43;5.03;;;;;;;38.27;28.62;97784.09;5053320;28;20250;-58
2021/06/17 07:49:01;;;;;;;5.22;4.82;;;;;;;38.91;27.28;97778.28;5050759;28;20238;-58
2021/06/17 07:51:28;;;;;;;5.57;4.75;;;;;;;39.17;27.48;97767.75;5051600;28;20260;-60
2021/06/17 07:53:58;;;;;;;5.00;4.60;;;;;;;37.76;28.77;97773.09;5053078;28;20221;-58
2021/06/17 07:56:25;;;;;;;5.35;4.65;;;;;;;38.26;28.22;97778.91;5051277;28;20248;-60
2021/06/17 07:58:51;;;;;;;4.90;4.50;;;;;;;37.85;28.65;97778.13;5051186;28;20763;-58
2021/06/17 08:01:18;;;;;;;4.97;4.50;;;;;;;39.81;26.77;97782.66;5048559;28;20256;-58
2021/06/17 08:03:46;;;;;;;5.13;4.72;;;;;;;39.48;26.87;97781.75;5051637;28;20726;-58
2021/06/17 08:06:12;;;;;;;5.57;5.07;;;;;;;38.98;27.49;97780.00;5047038;28;20288;-60
2021/06/17 08:08:39;;;;;;;4.38;3.97;;;;;;;39.18;27.06;97774.81;5049851;28;20236;-58
2021/06/17 08:11:05;;;;;;;5.32;4.40;;;;;;;38.89;27.52;97772.22;5052559;28;20229;-60
2021/06/17 08:13:31;;;;;;;5.10;4.57;;;;;;;39.78;26.36;97775.81;5052592;28;20213;-60
2021/06/17 08:15:58;;;;;;;4.82;4.30;;;;;;;39.66;26.73;97775.94;5050771;28;20289;-60
2021/06/17 08:18:24;;;;;;;5.38;4.85;;;;;;;39.43;27.12;97765.31;5050547;28;20718;-60
2021/06/17 08:20:54;;;;;;;5.00;4.57;;;;;;;38.98;27.50;97769.91;5048786;28;20745;-59
2021/06/17 08:23:21;;;;;;;5.35;4.82;;;;;;;38.87;26.27;97774.38;5049963;28;20706;-57
2021/06/17 08:25:48;;;;;;;4.88;4.40;;;;;;;39.21;26.56;97768.03;5050994;28;20317;-59
2021/06/17 08:28:14;;;;;;;5.25;4.80;;;;;;;39.55;26.22;97771.47;5047602;28;20213;-58
2021/06/17 08:30:41;;;;;;;5.63;5.10;;;;;;;39.01;26.70;97779.53;5047976;28;20237;-59
2021/06/17 08:33:07;;;;;;;4.63;4.30;;;;;;;39.14;26.89;97773.69;5051345;28;20713;-58
2021/06/17 08:35:34;;;;;;;4.85;4.50;;;;;;;39.56;26.32;97775.84;5050502;28;20247;-60
2021/06/17 08:38:02;;;;;;;5.10;4.63;;;;;;;40.06;26.17;97774.72;5049303;28;20218;-59
2021/06/17 08:40:31;;;;;;;4.78;4.45;;;;;;;40.34;25.75;97781.00;5051224;28;20249;-60
2021/06/17 08:42:58;;;;;;;4.70;4.25;;;;;;;38.49;27.50;97781.44;5051523;28;20257;-60
2021/06/17 08:45:24;;;;;;;5.47;4.68;;;;;;;40.11;25.72;97776.69;5049296;28;20222;-60
2021/06/17 08:47:51;;;;;;;4.78;4.22;;;;;;;38.85;26.10;97786.63;5053318;28;20216;-57
2021/06/17 08:50:17;;;;;;;4.45;4.00;;;;;;;39.44;25.39;97777.84;5049778;28;20863;-56
2021/06/17 08:52:45;;;;;;;3.63;3.33;;;;;;;38.03;24.42;97779.81;5049954;28;20228;-56
2021/06/17 08:55:16;;;;;;;4.18;3.83;;;;;;;38.72;24.12;97776.91;5046597;28;20216;-55
2021/06/17 08:57:43;;;;;;;4.35;3.95;;;;;;;39.43;25.56;97762.59;5050838;28;20206;-57
2021/06/17 09:00:32;;;;;;;4.43;4.03;;;;;;;39.96;23.76;97760.16;5049887;28;20248;-57
2021/06/17 09:03:01;;;;;;;3.92;3.63;;;;;;;39.90;23.67;97754.66;5053300;28;20233;-57
2021/06/17 09:05:28;;;;;;;3.97;3.60;;;;;;;39.62;24.58;97760.34;5050017;28;20259;-56
2021/06/17 09:07:55;;;;;;;4.75;4.35;;;;;;;39.97;25.02;97754.44;5048760;28;20214;-58
2021/06/17 09:10:23;;;;;;;4.38;4.00;;;;;;;38.74;26.37;97761.13;5046536;28;20237;-54
2021/06/17 09:12:55;;;;;;;4.55;4.15;;;;;;;39.25;25.46;97759.09;5051013;28;20214;-57
2021/06/17 09:15:31;;;;;;;4.72;4.40;;;;;;;38.91;26.78;97758.34;5051284;28;20218;-56
2021/06/17 09:18:16;;;;;;;5.03;4.47;;;;;;;38.96;26.24;97755.69;5051681;28;20217;-55
2021/06/17 09:20:56;;;;;;;4.82;4.53;;;;;;;38.74;25.72;97763.84;5052026;28;20236;-58
2021/06/17 09:23:35;;;;;;;4.78;4.38;;;;;;;38.77;25.92;97766.09;5051020;28;20852;-56
2021/06/17 09:26:05;;;;;;;4.68;4.30;;;;;;;38.40;27.14;97757.56;5048028;28;20285;-58
2021/06/17 09:28:49;;;;;;;4.78;4.38;;;;;;;38.05;26.87;97770.34;5049609;28;20206;-58
2021/06/17 09:31:17;;;;;;;4.80;4.30;;;;;;;38.53;26.76;97766.25;5048047;28;20287;-56
2021/06/17 09:33:44;;;;;;;4.93;4.25;;;;;;;38.44;26.80;97764.19;5050237;28;20217;-58
2021/06/17 09:36:11;;;;;;;4.90;4.45;;;;;;;39.05;25.32;97770.56;5049421;28;20829;-55
2021/06/17 09:38:47;;;;;;;4.20;3.90;;;;;;;38.48;26.79;97766.16;5051419;28;21056;-57
2021/06/17 09:44:08;;;;;;;4.20;3.90;;;;;;;38.37;27.59;97758.91;5134320;27;20535;-56
2021/06/17 09:46:35;;;;;;;4.60;4.22;;;;;;;37.68;26.86;97757.19;5110564;27;20239;-56
2021/06/17 09:49:06;;;;;;;4.50;4.05;;;;;;;38.11;27.18;97760.41;5101126;28;20236;-58
2021/06/17 09:51:37;;;;;;;4.80;4.30;;;;;;;37.93;26.41;97759.53;5112582;27;20245;-56
2021/06/17 09:54:17;;;;;;;4.72;3.80;;;;;;;37.89;26.01;97766.53;5120985;27;21007;-55
2021/06/17 09:56:47;;;;;;;4.10;3.80;;;;;;;37.44;26.61;97764.56;5120314;27;20247;-56
2021/06/17 09:59:32;;;;;;;4.20;3.85;;;;;;;37.89;27.09;97757.56;5120298;27;20242;-56
2021/06/17 10:01:58;;;;;;;3.90;3.58;;;;;;;37.28;27.86;97759.88;5120051;27;20750;-55
2021/06/17 10:04:25;;;;;;;4.15;3.60;;;;;;;37.51;28.26;97759.00;5121405;27;20222;-55
2021/06/17 10:06:52;;;;;;;3.97;3.60;;;;;;;37.52;27.32;97757.94;5120154;27;20956;-56
2021/06/17 10:09:18;;;;;;;4.95;3.83;;;;;;;37.51;27.60;97762.53;5121045;27;20230;-57
2021/06/17 10:11:45;;;;;;;5.15;3.70;;;;;;;37.23;27.47;97763.34;5119275;27;20735;-55
2021/06/17 10:14:13;;;;;;;4.15;3.63;;;;;;;36.37;29.13;97752.97;5122658;27;20243;-58
2021/06/17 10:16:42;;;;;;;4.43;3.70;;;;;;;36.63;27.82;97748.13;5120285;27;20313;-55
2021/06/17 10:19:09;;;;;;;4.05;3.63;;;;;;;37.15;28.16;97741.94;5121094;27;20331;-56
2021/06/17 10:21:36;;;;;;;4.32;4.03;;;;;;;36.86;28.65;97736.44;5119611;27;20720;-56
2021/06/17 10:24:05;;;;;;;4.88;4.10;;;;;;;36.83;28.15;97745.06;5120470;27;20235;-56
2021/06/17 10:26:41;;;;;;;4.38;3.97;;;;;;;36.79;27.39;97735.75;5120474;27;20231;-56
2021/06/17 10:29:07;;;;;;;4.07;3.78;;;;;;;36.56;28.54;97745.56;5121394;27;20235;-55
2021/06/17 10:31:47;;;;;;;4.20;3.90;;;;;;;36.33;28.37;97724.63;5120398;27;20239;-56
2021/06/17 10:34:37;;;;;;;5.13;3.83;;;;;;;36.50;28.68;97726.66;5111209;27;20207;-58
2021/06/17 10:37:10;;;;;;;4.30;3.90;;;;;;;36.19;28.55;97724.06;5120802;27;20238;-56
2021/06/17 10:39:37;;;;;;;6.47;4.03;;;;;;;36.19;29.05;97724.06;5121586;27;20298;-56
2021/06/17 10:42:15;;;;;;;4.88;4.45;;;;;;;36.37;28.90;97723.09;5118879;27;20670;-59
2021/06/17 10:44:48;;;;;;;4.10;3.80;;;;;;;35.83;29.65;97725.84;5120809;27;20704;-56
2021/06/17 10:48:06;;;;;;;4.82;4.10;;;;;;;35.66;30.05;97722.94;5118960;27;20245;-56
2021/06/17 10:50:51;;;;;;;5.15;4.22;;;;;;;35.24;30.06;97719.34;5119062;27;20255;-57
2021/06/17 10:53:45;;;;;;;4.53;4.13;;;;;;;35.25;30.33;97718.28;5119296;27;20295;-59
2021/06/17 10:56:16;;;;;;;4.43;3.97;;;;;;;35.39;29.95;97719.75;5097673;27;20244;-55
2021/06/17 10:59:04;;;;;;;4.30;3.90;;;;;;;35.13;29.86;97727.16;5106216;27;20291;-56
2021/06/17 11:01:46;;;;;;;4.68;4.28;;;;;;;35.51;30.56;97707.09;5105218;28;20244;-55
2021/06/17 11:04:20;;;;;;;4.90;4.50;;;;;;;35.11;31.16;97702.16;5106200;27;20373;-56
2021/06/17 11:07:20;;;;;;;6.43;4.25;;;;;;;34.51;31.10;97704.69;5104822;28;20273;-57
2021/06/17 11:09:59;;;;;;;4.72;4.25;;;;;;;34.56;31.39;97699.44;5105407;28;20916;-56
2021/06/17 11:12:57;;;;;;;4.13;3.72;;;;;;;34.67;30.30;97695.97;5104740;27;20224;-56
2021/06/17 11:15:44;;;;;;;4.22;3.92;;;;;;;34.35;30.99;97693.41;5105783;27;20219;-58
2021/06/17 11:18:11;;;;;;;4.85;4.45;;;;;;;34.01;31.05;97707.44;5104765;27;20240;-57
2021/06/17 11:20:39;;;;;;;4.05;3.75;;;;;;;34.32;31.21;97693.84;5105682;27;20239;-59
2021/06/17 11:23:07;;;;;;;4.35;3.95;;;;;;;33.73;32.31;97695.13;5104767;28;20315;-56
2021/06/17 11:25:37;;;;;;;4.22;3.83;;;;;;;33.80;31.75;97695.91;5107690;27;20246;-56
2021/06/17 11:28:05;;;;;;;4.57;4.28;;;;;;;34.07;32.00;97687.59;5105912;28;20223;-57
2021/06/17 11:30:57;;;;;;;4.45;4.05;;;;;;;33.88;30.62;97695.66;5104968;28;20239;-53
2021/06/17 11:33:50;;;;;;;5.13;4.45;;;;;;;32.90;33.11;97683.28;5105056;28;20572;-51
2021/06/17 11:36:20;;;;;;;5.28;4.28;;;;;;;32.59;32.68;97678.56;5106186;27;20243;-52
2021/06/17 11:38:53;;;;;;;4.90;4.50;;;;;;;34.22;32.36;97671.84;5105040;27;20311;-50
2021/06/17 11:41:25;;;;;;;4.97;4.57;;;;;;;34.17;30.92;97672.53;5104749;27;20235;-51
2021/06/17 11:43:54;;;;;;;4.18;3.88;;;;;;;32.97;31.84;97667.84;5108327;27;20935;-52
2021/06/17 11:46:26;;;;;;;4.43;3.90;;;;;;;34.14;31.73;97661.31;5104583;27;20243;-50
2021/06/17 11:48:54;;;;;;;4.32;4.03;;;;;;;33.91;31.68;97648.38;5104630;27;20245;-53